Time;durP1;ratioP1;P1;durP2;ratioP2;P2;SDS_P1;SDS_P2;PMS_P1;PMS_P2;Temp;Humidity;BMP_temperature;BMP_pressure;BME280_temperature;BME280_humidity;BME280_pressure;Samples;Min_cycle;Max_cycle;Signal;HPM_P1;HPM_P2
2023/06/23 00:01:20;;;;;;;21.85;16.70;;;16.80;99.90;;;;;;4981138;28;94673;-32
2023/06/23 00:03:46;;;;;;;18.90;16.48;;;16.80;99.90;;;;;;4981628;28;94679;-32
2023/06/23 00:06:13;;;;;;;21.52;17.35;;;16.80;99.90;;;;;;4980578;28;95094;-32
2023/06/23 00:08:39;;;;;;;19.98;17.33;;;16.80;99.90;;;;;;4981803;28;94485;-35
2023/06/23 00:11:06;;;;;;;21.35;16.48;;;16.80;99.90;;;;;;4981446;28;93939;-33
2023/06/23 00:13:34;;;;;;;23.45;17.33;;;16.80;99.90;;;;;;4980677;28;94598;-32
2023/06/23 00:16:00;;;;;;;;;;;16.80;99.90;;;;;;4981432;28;93573;-33
2023/06/23 00:18:26;;;;;;;26.83;18.95;;;16.80;99.90;;;;;;4983556;28;92464;-32
2023/06/23 00:20:54;;;;;;;21.98;17.50;;;16.80;99.90;;;;;;4981168;28;96453;-34
2023/06/23 00:23:20;;;;;;;19.63;16.75;;;16.80;99.90;;;;;;4980749;28;95169;-39
2023/06/23 00:25:46;;;;;;;19.85;16.90;;;16.80;99.90;;;;;;4981383;28;93244;-33
2023/06/23 00:28:11;;;;;;;18.88;16.52;;;16.80;99.90;;;;;;4980778;28;94475;-33
2023/06/23 00:30:37;;;;;;;20.02;16.50;;;16.80;99.90;;;;;;4979938;28;95846;-34
2023/06/23 00:33:03;;;;;;;21.10;18.10;;;16.80;99.90;;;;;;4981188;28;95451;-36
2023/06/23 00:35:28;;;;;;;23.13;18.48;;;16.80;99.90;;;;;;4992921;28;93063;-33
2023/06/23 00:37:54;;;;;;;22.15;16.92;;;16.80;99.90;;;;;;4985726;28;94277;-37
2023/06/23 00:40:22;;;;;;;19.48;16.70;;;16.80;99.90;;;;;;4993322;28;94801;-34
2023/06/23 00:42:54;;;;;;;19.65;15.75;;;16.80;99.90;;;;;;4996339;28;94082;-34
2023/06/23 00:45:21;;;;;;;20.88;16.30;;;16.80;99.90;;;;;;4979161;28;93055;-32
2023/06/23 00:47:47;;;;;;;23.75;18.40;;;16.80;99.90;;;;;;4977638;28;91772;-33
2023/06/23 00:50:16;;;;;;;31.48;16.83;;;16.80;99.90;;;;;;4995532;28;94259;-33
2023/06/23 00:52:49;;;;;;;21.23;16.67;;;16.80;99.90;;;;;;4997959;28;94259;-34
2023/06/23 00:55:28;;;;;;;18.75;16.73;;;16.70;99.90;;;;;;4976411;28;95565;-36
2023/06/23 00:57:55;;;;;;;20.60;17.27;;;16.70;99.90;;;;;;4988925;28;94272;-38
2023/06/23 01:00:22;;;;;;;17.98;16.02;;;16.70;99.90;;;;;;4962428;28;94801;-32
2023/06/23 01:02:50;;;;;;;20.88;17.35;;;16.70;99.90;;;;;;4974156;28;96104;-35
2023/06/23 01:05:17;;;;;;;;;;;16.70;99.90;;;;;;4977718;28;94351;-33
2023/06/23 01:07:43;;;;;;;19.52;15.75;;;16.70;99.90;;;;;;4979714;28;93240;-37
2023/06/23 01:10:38;;;;;;;19.45;15.73;;;16.70;99.90;;;;;;4977304;28;94674;-33
2023/06/23 01:13:06;;;;;;;21.38;16.98;;;16.70;99.90;;;;;;4977854;28;93333;-34
2023/06/23 01:15:38;;;;;;;18.90;16.42;;;16.70;99.90;;;;;;4977695;28;94871;-36
2023/06/23 01:18:37;;;;;;;17.60;15.68;;;16.70;99.90;;;;;;4966309;28;93314;-36
2023/06/23 01:21:08;;;;;;;21.13;16.80;;;16.70;99.90;;;;;;4976947;28;96613;-32
2023/06/23 01:24:02;;;;;;;21.08;17.48;;;16.70;99.90;;;;;;4977812;28;95038;-34
2023/06/23 01:26:53;;;;;;;18.63;15.57;;;16.70;99.90;;;;;;4977463;28;94121;-40
2023/06/23 01:29:28;;;;;;;20.73;17.27;;;16.70;99.90;;;;;;4977525;28;93776;-37
2023/06/23 01:32:03;;;;;;;22.92;18.50;;;16.70;99.90;;;;;;4977455;28;94606;-35
2023/06/23 01:34:37;;;;;;;19.95;16.65;;;16.70;99.90;;;;;;4974927;28;94565;-35
2023/06/23 01:37:11;;;;;;;20.60;17.13;;;16.70;99.90;;;;;;4974765;28;92980;-31
2023/06/23 01:39:41;;;;;;;24.02;17.15;;;16.70;99.90;;;;;;4976842;28;94039;-32
2023/06/23 01:42:12;;;;;;;19.98;16.13;;;16.70;99.90;;;;;;4975743;28;95106;-35
2023/06/23 01:44:41;;;;;;;24.02;17.60;;;16.70;99.90;;;;;;4976485;28;94686;-36
2023/06/23 01:47:16;;;;;;;22.35;16.63;;;16.70;99.90;;;;;;4975354;28;93150;-35
2023/06/23 01:49:43;;;;;;;18.38;16.55;;;16.70;99.90;;;;;;4974747;28;94563;-33
2023/06/23 01:52:11;;;;;;;18.20;15.88;;;16.70;99.90;;;;;;4975092;28;93876;-33
2023/06/23 01:54:40;;;;;;;18.58;14.95;;;16.70;99.90;;;;;;4974450;28;94613;-35
2023/06/23 01:57:06;;;;;;;16.65;14.90;;;16.70;99.90;;;;;;4957632;28;93223;-32
2023/06/23 01:59:35;;;;;;;25.70;14.98;;;16.70;99.90;;;;;;4956620;28;94269;-33
2023/06/23 02:02:02;;;;;;;16.60;14.80;;;16.70;99.90;;;;;;4956395;28;94929;-34
2023/06/23 02:04:30;;;;;;;21.10;14.75;;;16.70;99.90;;;;;;4956633;28;94911;-33
2023/06/23 02:06:56;;;;;;;15.32;11.95;;;16.70;99.90;;;;;;4956977;28;92211;-35
2023/06/23 02:09:27;;;;;;;14.75;13.23;;;16.70;99.90;;;;;;4957556;28;92169;-36
2023/06/23 02:11:54;;;;;;;16.05;13.00;;;16.60;99.90;;;;;;4956989;28;95551;-34
2023/06/23 02:14:21;;;;;;;20.92;14.93;;;16.60;99.90;;;;;;4957414;28;95539;-36
2023/06/23 02:16:48;;;;;;;17.88;12.93;;;16.60;99.90;;;;;;4957157;28;94285;-32
2023/06/23 02:19:16;;;;;;;13.63;12.27;;;16.60;99.90;;;;;;4957361;28;93424;-34
2023/06/23 02:21:44;;;;;;;13.00;11.63;;;16.60;99.90;;;;;;4939186;28;94946;-34
2023/06/23 02:24:11;;;;;;;13.53;12.13;;;16.60;99.90;;;;;;4955722;28;94654;-33
2023/06/23 02:26:38;;;;;;;15.82;11.82;;;16.60;99.90;;;;;;4956760;28;93015;-34
2023/06/23 02:29:06;;;;;;;12.40;11.10;;;16.60;99.90;;;;;;4957341;28;92577;-37
2023/06/23 02:31:33;;;;;;;14.02;12.65;;;16.60;99.90;;;;;;4956164;28;94623;-35
2023/06/23 02:33:59;;;;;;;12.68;11.38;;;16.60;99.90;;;;;;4962342;28;94528;-32
2023/06/23 02:36:43;;;;;;;19.50;11.88;;;16.50;99.90;;;;;;4973973;28;94383;-36
2023/06/23 02:39:13;;;;;;;22.45;11.63;;;16.50;99.90;;;;;;4965651;28;93265;-34
2023/06/23 02:41:40;;;;;;;13.80;12.15;;;16.50;99.90;;;;;;4975845;28;95155;-33
2023/06/23 02:44:20;;;;;;;16.85;12.40;;;16.50;99.90;;;;;;4975711;28;94418;-35
2023/06/23 02:46:52;;;;;;;14.85;10.80;;;16.50;99.90;;;;;;4975685;28;93238;-33
2023/06/23 02:49:23;;;;;;;13.00;11.60;;;16.50;99.90;;;;;;4968614;28;93403;-38
2023/06/23 02:51:52;;;;;;;16.08;11.05;;;16.50;99.90;;;;;;4975199;28;95325;-34
2023/06/23 02:54:18;;;;;;;14.45;12.45;;;16.50;99.90;;;;;;4974629;28;95088;-33
2023/06/23 02:56:46;;;;;;;15.60;12.90;;;16.50;99.90;;;;;;4973979;28;93557;-35
2023/06/23 02:59:16;;;;;;;17.27;12.90;;;16.50;99.90;;;;;;4966213;28;92976;-38
2023/06/23 03:01:46;;;;;;;14.98;12.73;;;16.50;99.90;;;;;;4974482;28;95636;-33
2023/06/23 03:04:12;;;;;;;13.90;11.95;;;16.50;99.90;;;;;;4975097;28;94225;-34
2023/06/23 03:06:39;;;;;;;16.50;12.00;;;16.50;99.90;;;;;;4975004;28;92793;-37
2023/06/23 03:09:06;;;;;;;14.45;12.40;;;16.40;99.90;;;;;;4974170;28;93891;-37
2023/06/23 03:11:33;;;;;;;13.45;10.52;;;16.50;99.90;;;;;;4975733;28;93388;-37
2023/06/23 03:13:59;;;;;;;16.17;12.07;;;16.50;99.90;;;;;;4974095;28;94753;-31
2023/06/23 03:16:49;;;;;;;15.18;12.27;;;16.50;99.90;;;;;;4974863;28;93135;-34
2023/06/23 03:19:49;;;;;;;14.60;11.88;;;16.40;99.90;;;;;;4974996;28;93568;-38
2023/06/23 03:22:22;;;;;;;16.40;11.70;;;16.40;99.90;;;;;;4965237;28;95043;-33
2023/06/23 03:24:52;;;;;;;12.68;11.27;;;16.40;99.90;;;;;;4975081;28;94373;-36
2023/06/23 03:27:21;;;;;;;12.55;11.27;;;16.40;99.90;;;;;;4971237;28;93092;-33
2023/06/23 03:29:53;;;;;;;12.70;11.40;;;16.40;99.90;;;;;;4975803;28;94283;-32
2023/06/23 03:32:25;;;;;;;14.70;10.70;;;16.40;99.90;;;;;;4969953;28;95058;-39
2023/06/23 03:34:57;;;;;;;12.93;10.60;;;16.40;99.90;;;;;;4972768;28;94549;-33
2023/06/23 03:37:26;;;;;;;14.95;10.38;;;16.40;99.90;;;;;;4957009;28;92771;-32
2023/06/23 03:39:57;;;;;;;14.65;10.63;;;16.40;99.90;;;;;;4973901;28;93459;-36
2023/06/23 03:42:24;;;;;;;18.70;12.02;;;16.40;99.90;;;;;;4968967;28;94211;-33
2023/06/23 03:44:51;;;;;;;13.48;9.52;;;16.30;99.90;;;;;;4974464;28;93730;-32
2023/06/23 03:47:20;;;;;;;13.60;10.55;;;16.30;99.90;;;;;;4975728;28;94162;-39
2023/06/23 03:49:50;;;;;;;10.82;9.73;;;16.30;99.90;;;;;;4973600;28;94122;-42
2023/06/23 03:52:18;;;;;;;18.38;10.68;;;16.30;99.90;;;;;;4975785;28;98041;-35
2023/06/23 03:54:47;;;;;;;11.80;9.77;;;16.30;99.90;;;;;;4986560;28;95231;-33
2023/06/23 03:57:17;;;;;;;10.73;9.23;;;16.30;99.90;;;;;;4976248;28;93421;-33
2023/06/23 03:59:45;;;;;;;13.63;8.95;;;16.40;99.90;;;;;;4967239;28;94364;-33
2023/06/23 04:02:15;;;;;;;11.07;10.05;;;16.30;99.90;;;;;;4975411;28;96557;-34
2023/06/23 04:04:44;;;;;;;12.77;9.75;;;16.30;99.90;;;;;;4973332;28;94313;-33
2023/06/23 04:07:11;;;;;;;13.90;9.95;;;16.30;99.90;;;;;;4975600;28;94327;-36
2023/06/23 04:09:40;;;;;;;10.13;8.15;;;16.20;99.90;;;;;;4967038;28;91544;-32
2023/06/23 04:12:10;;;;;;;13.35;9.13;;;16.30;99.90;;;;;;4977815;28;94762;-37
2023/06/23 04:14:38;;;;;;;12.55;10.10;;;16.30;99.90;;;;;;4974676;28;94466;-36
2023/06/23 04:17:06;;;;;;;12.95;10.02;;;16.30;99.90;;;;;;4976763;28;93239;-36
2023/06/23 04:19:34;;;;;;;10.38;8.25;;;16.30;99.90;;;;;;4977806;28;94492;-39
2023/06/23 04:22:02;;;;;;;9.93;8.80;;;16.30;99.90;;;;;;4975527;28;95095;-35
2023/06/23 04:24:30;;;;;;;12.25;9.07;;;16.30;99.90;;;;;;4973022;28;94330;-35
2023/06/23 04:26:58;;;;;;;13.63;10.60;;;16.30;99.90;;;;;;4977427;28;93987;-35
2023/06/23 04:29:25;;;;;;;13.10;10.38;;;16.40;99.90;;;;;;4976889;28;94454;-35
2023/06/23 04:31:54;;;;;;;9.98;8.32;;;16.40;99.90;;;;;;4975733;28;95686;-39
2023/06/23 04:34:19;;;;;;;16.02;9.63;;;16.40;99.90;;;;;;5027746;22;94567;-35
2023/06/23 04:36:54;;;;;;;10.52;9.38;;;16.30;99.90;;;;;;4996553;28;93726;-37
2023/06/23 04:39:31;;;;;;;13.77;10.07;;;16.30;99.90;;;;;;4996937;28;92931;-33
2023/06/23 04:42:02;;;;;;;14.95;10.45;;;16.40;99.90;;;;;;4976924;28;97827;-31
2023/06/23 04:44:32;;;;;;;10.50;9.50;;;16.40;99.90;;;;;;4995711;28;95873;-40
2023/06/23 04:47:02;;;;;;;16.02;9.93;;;16.40;99.90;;;;;;4996055;28;94665;-40
2023/06/23 04:49:30;;;;;;;11.63;8.93;;;16.40;99.90;;;;;;4997256;28;92856;-34
2023/06/23 04:52:02;;;;;;;11.68;10.57;;;16.50;99.90;;;;;;4997634;28;94747;-36
2023/06/23 04:54:42;;;;;;;10.95;9.85;;;16.50;99.90;;;;;;4983017;28;95439;-38
2023/06/23 04:57:16;;;;;;;13.80;10.13;;;16.60;99.90;;;;;;4997409;28;94362;-34
2023/06/23 04:59:51;;;;;;;11.98;9.18;;;16.60;99.90;;;;;;4981349;28;93738;-32
2023/06/23 05:02:19;;;;;;;22.83;11.10;;;16.60;99.90;;;;;;4997530;28;94363;-33
2023/06/23 05:04:46;;;;;;;11.03;9.10;;;16.60;99.90;;;;;;4992232;28;95104;-33
2023/06/23 05:07:14;;;;;;;16.05;11.38;;;16.60;99.90;;;;;;4986251;28;94199;-36
2023/06/23 05:09:42;;;;;;;;;;;16.70;99.90;;;;;;4990985;28;94267;-36
2023/06/23 05:12:10;;;;;;;13.98;10.52;;;16.70;99.90;;;;;;4979096;28;95049;-36
2023/06/23 05:14:38;;;;;;;12.02;10.82;;;16.70;99.90;;;;;;4990306;28;94787;-35
2023/06/23 05:17:06;;;;;;;15.52;10.80;;;16.70;99.90;;;;;;4990655;28;93777;-36
2023/06/23 05:19:34;;;;;;;;;;;16.70;99.90;;;;;;4996850;28;93300;-36
2023/06/23 05:22:01;;;;;;;11.98;10.70;;;16.70;99.90;;;;;;4984771;28;94816;-35
2023/06/23 05:24:27;;;;;;;19.85;11.07;;;16.70;99.90;;;;;;4971282;28;93933;-37
2023/06/23 05:26:55;;;;;;;11.30;10.00;;;16.70;99.90;;;;;;4983569;28;93788;-36
2023/06/23 05:29:23;;;;;;;;;;;16.80;99.90;;;;;;4984709;28;92911;-38
2023/06/23 05:31:50;;;;;;;15.57;10.90;;;16.80;99.90;;;;;;4997046;28;95590;-32
2023/06/23 05:34:18;;;;;;;10.52;9.48;;;16.70;99.90;;;;;;4957737;28;95813;-35
2023/06/23 05:36:46;;;;;;;10.35;9.30;;;16.80;99.90;;;;;;4979280;28;93703;-35
2023/06/23 05:39:16;;;;;;;21.67;11.13;;;16.80;99.90;;;;;;4996831;28;94387;-33
2023/06/23 05:41:42;;;;;;;11.45;10.43;;;16.80;99.90;;;;;;4995708;28;94883;-34
2023/06/23 05:44:08;;;;;;;15.88;10.95;;;16.80;99.90;;;;;;4993448;28;94758;-34
2023/06/23 05:46:38;;;;;;;10.52;9.43;;;16.80;99.90;;;;;;4996471;28;94353;-36
2023/06/23 05:49:10;;;;;;;12.07;10.70;;;16.90;99.90;;;;;;4994846;28;92738;-31
2023/06/23 05:51:39;;;;;;;12.80;9.88;;;16.90;99.90;;;;;;4983508;28;95606;-35
2023/06/23 05:54:09;;;;;;;11.75;10.30;;;16.90;99.90;;;;;;4993941;28;94932;-32
2023/06/23 05:56:45;;;;;;;17.00;10.63;;;16.90;99.90;;;;;;4996311;28;94493;-32
2023/06/23 05:59:39;;;;;;;15.38;11.35;;;16.90;99.90;;;;;;4996192;28;92941;-34
2023/06/23 06:02:08;;;;;;;15.63;10.50;;;16.90;99.90;;;;;;4961973;28;94386;-39
2023/06/23 06:04:39;;;;;;;12.98;10.38;;;17.00;99.90;;;;;;4977288;28;95032;-32
2023/06/23 06:07:06;;;;;;;13.25;10.75;;;17.00;99.90;;;;;;4978779;28;94452;-37
2023/06/23 06:09:34;;;;;;;10.68;9.55;;;17.00;99.90;;;;;;4974302;28;93873;-35
2023/06/23 06:12:02;;;;;;;10.88;9.52;;;17.00;99.90;;;;;;4977047;28;94803;-37
2023/06/23 06:14:30;;;;;;;14.32;10.50;;;17.00;99.90;;;;;;4990058;28;94830;-38
2023/06/23 06:16:57;;;;;;;13.90;10.50;;;17.10;99.90;;;;;;4976639;28;94441;-36
2023/06/23 06:19:25;;;;;;;14.38;9.43;;;17.10;99.90;;;;;;4985112;28;93355;-35
2023/06/23 06:21:54;;;;;;;12.02;9.77;;;17.20;99.90;;;;;;4986671;28;95057;-34
2023/06/23 06:24:21;;;;;;;12.82;11.40;;;17.20;99.90;;;;;;4981388;28;95799;-37
2023/06/23 06:26:49;;;;;;;15.10;9.80;;;17.20;99.90;;;;;;4984193;28;92581;-33
2023/06/23 06:29:17;;;;;;;;;;;17.30;99.90;;;;;;4983253;28;92662;-34
2023/06/23 06:31:45;;;;;;;13.00;11.50;;;17.40;99.90;;;;;;4998219;28;94608;-34
2023/06/23 06:34:14;;;;;;;13.07;11.37;;;17.50;99.90;;;;;;4981571;28;95889;-33
2023/06/23 06:36:41;;;;;;;14.70;10.40;;;17.60;99.90;;;;;;4995599;28;93354;-35
2023/06/23 06:39:07;;;;;;;13.80;11.23;;;17.70;99.90;;;;;;4948238;28;91533;-37
2023/06/23 06:41:35;;;;;;;11.65;9.40;;;17.90;99.90;;;;;;4995743;28;94772;-33
2023/06/23 06:44:03;;;;;;;12.35;10.57;;;17.80;99.90;;;;;;4983094;28;94677;-39
2023/06/23 06:46:29;;;;;;;13.65;10.75;;;18.10;99.90;;;;;;4983073;28;95504;-38
2023/06/23 06:48:56;;;;;;;10.93;9.90;;;18.30;99.90;;;;;;4985304;28;94311;-36
2023/06/23 06:51:22;;;;;;;11.20;9.32;;;18.40;99.90;;;;;;4985165;28;95232;-32
2023/06/23 06:53:49;;;;;;;13.35;10.82;;;18.60;99.90;;;;;;4974607;28;94355;-35
2023/06/23 06:56:16;;;;;;;12.20;9.02;;;18.60;99.90;;;;;;4974073;28;94778;-33
2023/06/23 06:58:41;;;;;;;16.52;10.85;;;18.70;99.90;;;;;;4987720;28;94179;-33
2023/06/23 07:01:07;;;;;;;14.85;9.80;;;18.80;99.90;;;;;;4984780;28;94770;-39
2023/06/23 07:03:35;;;;;;;13.60;10.60;;;18.80;99.90;;;;;;4994252;28;96204;-35
2023/06/23 07:06:01;;;;;;;10.45;9.40;;;19.00;99.90;;;;;;4992538;28;93630;-36
2023/06/23 07:08:27;;;;;;;8.85;8.05;;;19.30;99.90;;;;;;4982290;28;93627;-35
2023/06/23 07:10:53;;;;;;;10.65;9.55;;;19.60;99.90;;;;;;4993067;28;95682;-33
2023/06/23 07:13:19;;;;;;;9.82;8.05;;;19.90;99.90;;;;;;4993969;28;96027;-34
2023/06/23 07:15:44;;;;;;;9.82;8.63;;;20.20;99.90;;;;;;4994196;28;92693;-33
2023/06/23 07:18:10;;;;;;;10.15;8.10;;;20.60;99.90;;;;;;4991405;28;94208;-33
2023/06/23 07:20:36;;;;;;;8.57;7.45;;;20.70;99.90;;;;;;4981776;28;94490;-35
2023/06/23 07:23:01;;;;;;;9.27;7.57;;;20.90;99.90;;;;;;4989751;28;94272;-33
2023/06/23 07:25:27;;;;;;;7.63;6.85;;;21.10;99.90;;;;;;4994026;28;94684;-39
2023/06/23 07:27:52;;;;;;;8.30;6.50;;;21.30;99.90;;;;;;4994666;28;93403;-38
2023/06/23 07:30:18;;;;;;;9.23;7.30;;;21.60;99.90;;;;;;4981831;28;94946;-39
2023/06/23 07:32:45;;;;;;;8.30;6.47;;;21.90;99.90;;;;;;4995660;28;94478;-35
2023/06/23 07:35:11;;;;;;;9.63;7.30;;;22.00;99.90;;;;;;4975987;28;95748;-33
2023/06/23 07:37:38;;;;;;;10.45;6.50;;;22.20;99.90;;;;;;4987448;28;93551;-38
2023/06/23 07:40:08;;;;;;;12.32;6.38;;;21.70;99.90;;;;;;4976059;28;94552;-34
2023/06/23 07:42:33;;;;;;;10.82;5.40;;;21.90;99.90;;;;;;4988269;28;94863;-36
2023/06/23 07:45:00;;;;;;;6.63;5.85;;;22.20;99.90;;;;;;4995541;28;92346;-36
2023/06/23 07:47:26;;;;;;;7.15;5.78;;;22.30;99.90;;;;;;4998542;28;93200;-37
2023/06/23 07:49:51;;;;;;;6.90;5.90;;;22.40;99.90;;;;;;4998040;28;97034;-35
2023/06/23 07:52:17;;;;;;;5.30;4.80;;;22.50;99.90;;;;;;4980450;28;94322;-34
2023/06/23 07:54:43;;;;;;;7.05;5.50;;;22.60;99.90;;;;;;4984795;28;93447;-37
2023/06/23 07:57:09;;;;;;;7.65;5.53;;;22.90;99.90;;;;;;4998938;28;92854;-37
2023/06/23 07:59:35;;;;;;;8.43;5.25;;;23.10;99.90;;;;;;4997473;28;95293;-39
2023/06/23 08:02:01;;;;;;;8.73;5.97;;;23.20;99.90;;;;;;4998711;28;96138;-35
2023/06/23 08:04:27;;;;;;;6.25;4.88;;;23.40;99.90;;;;;;4998394;28;92497;-33
2023/06/23 08:06:53;;;;;;;7.65;5.63;;;23.30;99.90;;;;;;4999596;28;94472;-34
2023/06/23 08:09:19;;;;;;;8.85;6.03;;;23.50;99.90;;;;;;4995611;28;95024;-32
2023/06/23 08:11:44;;;;;;;6.30;5.72;;;23.60;99.90;;;;;;4987200;28;94522;-35
2023/06/23 08:14:11;;;;;;;5.82;5.25;;;23.90;99.90;;;;;;4998636;28;93630;-34
2023/06/23 08:16:37;;;;;;;6.00;5.20;;;24.20;99.90;;;;;;4981769;28;93959;-34
2023/06/23 08:19:03;;;;;;;6.13;5.50;;;24.00;99.90;;;;;;4979339;28;94413;-36
2023/06/23 08:21:30;;;;;;;6.95;5.40;;;24.00;99.90;;;;;;4984639;28;95941;-36
2023/06/23 08:23:56;;;;;;;10.02;5.30;;;24.40;99.90;;;;;;4982046;28;93153;-33
2023/06/23 08:26:22;;;;;;;7.88;6.07;;;24.50;99.90;;;;;;4984655;28;93791;-33
2023/06/23 08:28:47;;;;;;;7.82;5.72;;;24.20;99.90;;;;;;4983683;28;94897;-36
2023/06/23 08:31:13;;;;;;;6.95;6.25;;;24.60;99.90;;;;;;4997655;28;95518;-38
2023/06/23 08:33:39;;;;;;;6.50;5.47;;;24.60;99.90;;;;;;4998069;28;94575;-35
2023/06/23 08:36:06;;;;;;;7.00;6.13;;;24.90;99.90;;;;;;4997949;28;94761;-35
2023/06/23 08:38:32;;;;;;;7.25;6.53;;;24.60;99.90;;;;;;4998598;28;94600;-37
2023/06/23 08:40:58;;;;;;;6.68;5.57;;;24.60;99.90;;;;;;4998464;28;95659;-33
2023/06/23 08:43:25;;;;;;;7.28;6.20;;;24.30;99.90;;;;;;4997533;28;94575;-37
2023/06/23 08:45:55;;;;;;;6.13;5.57;;;24.60;99.90;;;;;;4998264;28;93592;-35
2023/06/23 08:48:27;;;;;;;6.50;5.65;;;25.10;99.90;;;;;;4977844;28;95725;-33
2023/06/23 08:50:54;;;;;;;6.75;5.22;;;25.10;99.90;;;;;;4998128;28;95293;-35
2023/06/23 08:53:22;;;;;;;6.78;5.03;;;24.90;99.90;;;;;;4998249;28;92979;-33
2023/06/23 08:55:49;;;;;;;5.53;4.72;;;25.00;99.90;;;;;;4998585;28;92272;-33
2023/06/23 08:58:16;;;;;;;6.80;4.57;;;25.10;99.90;;;;;;4990837;28;93867;-33
2023/06/23 09:00:41;;;;;;;4.97;4.47;;;24.90;99.90;;;;;;4994220;28;95553;-37
2023/06/23 09:03:07;;;;;;;5.78;5.22;;;25.30;99.90;;;;;;4998503;28;94845;-35
2023/06/23 09:05:33;;;;;;;6.68;6.07;;;25.40;99.90;;;;;;4998217;28;92731;-32
2023/06/23 09:07:59;;;;;;;4.70;4.30;;;25.50;99.90;;;;;;4997498;28;94789;-35
2023/06/23 09:10:25;;;;;;;7.30;5.30;;;25.70;99.90;;;;;;4996365;28;95764;-36
2023/06/23 09:13:10;;;;;;;4.97;4.47;;;25.80;99.90;;;;;;4995539;28;94461;-33
2023/06/23 09:15:38;;;;;;;5.43;4.38;;;25.70;99.90;;;;;;4996290;28;92329;-34
2023/06/23 09:18:04;;;;;;;4.50;4.10;;;25.80;99.90;;;;;;4997303;28;94653;-38
2023/06/23 09:20:32;;;;;;;5.57;5.03;;;25.60;99.90;;;;;;4995454;28;94843;-37
2023/06/23 09:22:58;;;;;;;5.40;4.70;;;25.40;99.90;;;;;;4997239;28;93421;-34
2023/06/23 09:25:37;;;;;;;8.18;5.28;;;25.50;99.90;;;;;;4996670;28;92260;-36
2023/06/23 09:28:04;;;;;;;5.45;4.95;;;25.80;99.90;;;;;;4997590;28;94133;-33
2023/06/23 09:30:33;;;;;;;5.78;4.95;;;25.80;99.90;;;;;;4995408;28;94525;-37
2023/06/23 09:33:05;;;;;;;4.55;4.22;;;25.80;99.90;;;;;;4997342;28;92252;-36
2023/06/23 09:35:31;;;;;;;5.75;5.15;;;25.90;99.90;;;;;;4989686;28;94009;-36
2023/06/23 09:37:57;;;;;;;5.85;4.45;;;26.00;99.90;;;;;;4978574;28;95766;-35
2023/06/23 09:40:29;;;;;;;7.57;4.72;;;26.00;99.90;;;;;;4995297;28;96112;-34
2023/06/23 09:42:59;;;;;;;4.28;3.88;;;26.10;99.90;;;;;;4997677;28;93262;-36
2023/06/23 09:45:25;;;;;;;3.97;3.47;;;26.00;99.90;;;;;;4995293;28;93109;-32
2023/06/23 09:47:50;;;;;;;4.45;4.05;;;26.00;99.40;;;;;;4978169;28;95037;-37
2023/06/23 09:50:18;;;;;;;7.38;4.32;;;26.20;76.50;;;;;;4993910;28;94520;-34
2023/06/23 09:52:43;;;;;;;9.90;5.43;;;26.00;86.30;;;;;;4996640;28;94306;-39
2023/06/23 09:55:09;;;;;;;4.32;3.75;;;26.00;93.40;;;;;;4989726;28;92623;-33
2023/06/23 09:57:35;;;;;;;4.45;4.15;;;25.90;97.00;;;;;;4996904;28;94920;-33
2023/06/23 10:00:02;;;;;;;5.00;4.50;;;26.20;99.90;;;;;;4996117;28;93927;-35
2023/06/23 10:02:29;;;;;;;4.57;4.17;;;26.20;99.90;;;;;;4996429;28;93100;-36
2023/06/23 10:04:59;;;;;;;4.03;3.72;;;26.00;94.10;;;;;;4989355;28;93316;-34
2023/06/23 10:07:26;;;;;;;4.10;3.70;;;25.90;73.70;;;;;;4981816;28;94823;-33
2023/06/23 10:09:54;;;;;;;4.43;4.00;;;25.90;91.50;;;;;;4979351;28;94170;-36
2023/06/23 10:12:22;;;;;;;4.70;3.92;;;26.10;89.80;;;;;;4990720;28;95100;-34
2023/06/23 10:14:51;;;;;;;4.30;3.90;;;26.10;89.60;;;;;;4990627;28;92281;-33
2023/06/23 10:17:17;;;;;;;4.72;3.97;;;25.80;90.50;;;;;;4989000;28;95681;-33
2023/06/23 10:19:56;;;;;;;4.70;3.90;;;26.10;88.60;;;;;;4987359;28;94302;-34
2023/06/23 10:22:22;;;;;;;4.90;4.22;;;26.00;95.00;;;;;;4996851;28;93927;-34
2023/06/23 10:24:51;;;;;;;5.15;4.70;;;25.90;95.10;;;;;;4997120;28;94911;-36
2023/06/23 10:27:20;;;;;;;5.43;4.93;;;26.00;92.40;;;;;;4990288;28;95670;-35
2023/06/23 10:29:52;;;;;;;5.30;4.80;;;25.80;91.00;;;;;;4991782;28;95206;-33
2023/06/23 10:32:21;;;;;;;4.93;4.22;;;25.90;94.40;;;;;;4991810;28;93650;-32
2023/06/23 10:34:47;;;;;;;4.93;4.40;;;26.00;97.00;;;;;;4980504;28;93903;-34
2023/06/23 10:37:17;;;;;;;4.57;4.13;;;25.90;93.40;;;;;;4990815;28;95261;-33
2023/06/23 10:39:50;;;;;;;5.05;4.22;;;26.00;97.50;;;;;;4996478;28;94328;-35
2023/06/23 10:42:16;;;;;;;5.32;4.90;;;26.10;99.30;;;;;;4992276;28;94236;-36
2023/06/23 10:44:43;;;;;;;6.18;4.40;;;26.20;96.50;;;;;;4996695;28;93723;-34
2023/06/23 10:47:08;;;;;;;5.78;5.07;;;25.80;94.50;;;;;;4982127;28;93894;-33
2023/06/23 10:49:35;;;;;;;7.38;5.05;;;25.80;88.30;;;;;;4983334;28;94799;-35
2023/06/23 10:52:02;;;;;;;5.32;4.82;;;25.70;91.70;;;;;;4980541;28;94964;-33
2023/06/23 10:54:29;;;;;;;4.43;4.13;;;25.70;95.40;;;;;;4980226;28;93315;-37
2023/06/23 10:56:55;;;;;;;4.87;4.47;;;25.50;99.90;;;;;;4994077;28;94778;-35
2023/06/23 10:59:21;;;;;;;5.63;4.25;;;25.70;98.90;;;;;;4993224;28;94466;-33
2023/06/23 11:02:07;;;;;;;8.45;4.35;;;25.70;97.60;;;;;;4986935;28;93100;-34
2023/06/23 11:04:35;;;;;;;5.10;4.70;;;25.80;96.00;;;;;;4989929;28;92984;-33
2023/06/23 11:07:02;;;;;;;5.20;4.18;;;25.80;83.90;;;;;;4993260;28;94871;-35
2023/06/23 11:09:45;;;;;;;4.95;4.45;;;25.90;82.90;;;;;;4992997;28;94256;-36
2023/06/23 11:12:32;;;;;;;4.80;4.40;;;26.00;94.50;;;;;;4993807;28;93164;-33
2023/06/23 11:15:15;;;;;;;5.97;4.22;;;26.10;83.30;;;;;;4971060;28;93651;-33
2023/06/23 11:17:50;;;;;;;4.63;4.13;;;26.20;94.10;;;;;;4992142;28;95341;-35
2023/06/23 11:20:25;;;;;;;4.18;3.78;;;25.90;79.50;;;;;;4993084;28;95325;-33
2023/06/23 11:23:03;;;;;;;5.95;3.97;;;25.60;91.30;;;;;;4968209;28;94912;-32
2023/06/23 11:25:37;;;;;;;4.65;4.18;;;25.60;93.50;;;;;;4977901;28;94688;-33
2023/06/23 11:28:34;;;;;;;4.35;3.95;;;25.80;96.00;;;;;;4973950;28;94979;-33
2023/06/23 11:31:17;;;;;;;5.63;3.35;;;25.70;70.80;;;;;;4968440;28;94422;-35
2023/06/23 11:33:45;;;;;;;3.90;3.60;;;25.80;72.80;;;;;;4956539;28;93195;-35
2023/06/23 11:36:19;;;;;;;5.05;3.92;;;25.80;80.10;;;;;;4954523;28;92718;-34
2023/06/23 11:38:45;;;;;;;4.38;3.97;;;25.90;78.20;;;;;;4957733;28;94464;-38
2023/06/23 11:41:23;;;;;;;6.72;4.68;;;26.00;81.20;;;;;;4973108;28;94274;-35
2023/06/23 11:43:48;;;;;;;3.53;3.22;;;26.00;87.40;;;;;;4973055;28;94099;-34
2023/06/23 11:46:15;;;;;;;6.90;3.97;;;26.00;80.70;;;;;;4972637;28;93817;-33
2023/06/23 11:48:42;;;;;;;4.78;4.25;;;26.10;82.30;;;;;;4972785;28;95211;-39
2023/06/23 11:51:12;;;;;;;4.10;3.72;;;26.00;82.20;;;;;;4987904;28;96925;-36
2023/06/23 11:53:41;;;;;;;4.95;4.45;;;25.80;76.40;;;;;;4942828;28;94729;-33
2023/06/23 11:56:08;;;;;;;4.13;3.72;;;25.90;91.70;;;;;;4965946;28;92653;-37
2023/06/23 11:58:34;;;;;;;4.85;3.92;;;25.90;92.00;;;;;;4955752;28;94975;-35
2023/06/23 12:01:01;;;;;;;6.82;4.00;;;26.00;85.70;;;;;;4968001;28;94632;-36
2023/06/23 12:03:29;;;;;;;5.53;3.92;;;25.90;85.40;;;;;;4964543;28;92359;-34
2023/06/23 12:05:55;;;;;;;3.90;3.50;;;25.80;81.90;;;;;;4969522;28;93473;-34
2023/06/23 12:08:23;;;;;;;4.32;3.92;;;25.80;83.30;;;;;;4964515;28;95642;-35
2023/06/23 12:10:51;;;;;;;4.15;3.03;;;26.00;84.00;;;;;;4968388;28;95637;-37
2023/06/23 12:13:18;;;;;;;;;;;25.90;77.70;;;;;;4965652;28;92254;-34
2023/06/23 12:15:44;;;;;;;4.37;3.97;;;26.00;84.10;;;;;;4969020;28;94766;-33
2023/06/23 12:18:10;;;;;;;5.05;3.75;;;25.90;76.70;;;;;;4965061;28;95683;-33
2023/06/23 12:20:41;;;;;;;5.88;4.35;;;26.00;72.70;;;;;;4964792;28;94498;-37
2023/06/23 12:23:10;;;;;;;3.83;3.53;;;25.90;74.70;;;;;;4963896;28;93799;-35
2023/06/23 12:25:42;;;;;;;5.65;4.22;;;25.90;79.90;;;;;;4964773;28;92771;-37
2023/06/23 12:28:20;;;;;;;4.95;3.55;;;26.00;75.60;;;;;;4953305;28;94959;-35
2023/06/23 12:30:50;;;;;;;4.32;3.60;;;25.90;74.50;;;;;;4955181;28;95973;-33
2023/06/23 12:33:29;;;;;;;8.70;3.58;;;25.90;81.30;;;;;;4969416;28;94948;-37
2023/06/23 12:36:02;;;;;;;4.03;3.35;;;25.90;76.20;;;;;;4994943;28;93423;-40
2023/06/23 12:38:30;;;;;;;4.00;3.65;;;26.10;81.60;;;;;;4991435;28;94509;-37
2023/06/23 12:41:13;;;;;;;4.13;3.72;;;26.10;78.00;;;;;;4974377;28;94346;-34
2023/06/23 12:43:39;;;;;;;4.22;3.83;;;26.00;75.70;;;;;;4983220;28;94316;-34
2023/06/23 12:46:05;;;;;;;5.03;4.03;;;26.00;74.90;;;;;;4995798;28;93480;-33
2023/06/23 12:48:30;;;;;;;5.15;3.42;;;26.00;75.20;;;;;;4982834;28;94788;-37